sensor_id;sensor_type;location;lat;lon;timestamp;temperature;humidity
29201;DHT22;16244;51.956;12.980;2023-04-09T00:00:28;1.90;99.40
29201;DHT22;16244;51.956;12.980;2023-04-09T00:02:57;1.90;99.00
29201;DHT22;16244;51.956;12.980;2023-04-09T00:05:26;1.90;99.30
29201;DHT22;16244;51.956;12.980;2023-04-09T00:07:54;1.90;99.40
29201;DHT22;16244;51.956;12.980;2023-04-09T00:10:21;1.90;98.80
29201;DHT22;16244;51.956;12.980;2023-04-09T00:12:49;1.90;98.70
29201;DHT22;16244;51.956;12.980;2023-04-09T00:15:17;1.90;98.60
29201;DHT22;16244;51.956;12.980;2023-04-09T00:17:44;1.90;99.00
29201;DHT22;16244;51.956;12.980;2023-04-09T00:20:17;1.90;99.10
29201;DHT22;16244;51.956;12.980;2023-04-09T00:22:47;1.90;99.70
29201;DHT22;16244;51.956;12.980;2023-04-09T00:25:15;2.00;99.70
29201;DHT22;16244;51.956;12.980;2023-04-09T00:27:43;2.10;99.50
29201;DHT22;16244;51.956;12.980;2023-04-09T00:30:11;2.00;99.50
29201;DHT22;16244;51.956;12.980;2023-04-09T00:32:39;2.00;99.00
29201;DHT22;16244;51.956;12.980;2023-04-09T00:35:07;1.90;98.70
29201;DHT22;16244;51.956;12.980;2023-04-09T00:37:35;1.80;99.50
29201;DHT22;16244;51.956;12.980;2023-04-09T00:40:06;1.90;99.80
29201;DHT22;16244;51.956;12.980;2023-04-09T00:42:34;1.80;99.90
29201;DHT22;16244;51.956;12.980;2023-04-09T00:45:03;1.80;99.90
29201;DHT22;16244;51.956;12.980;2023-04-09T00:47:32;1.70;99.90
29201;DHT22;16244;51.956;12.980;2023-04-09T00:50:01;1.80;99.40
29201;DHT22;16244;51.956;12.980;2023-04-09T00:52:29;1.80;99.10
29201;DHT22;16244;51.956;12.980;2023-04-09T00:55:00;1.70;99.10
29201;DHT22;16244;51.956;12.980;2023-04-09T00:57:29;1.70;99.10
29201;DHT22;16244;51.956;12.980;2023-04-09T00:59:56;1.60;99.80
29201;DHT22;16244;51.956;12.980;2023-04-09T01:02:25;1.60;99.80
29201;DHT22;16244;51.956;12.980;2023-04-09T01:04:53;1.50;99.90
29201;DHT22;16244;51.956;12.980;2023-04-09T01:07:30;1.60;99.90
29201;DHT22;16244;51.956;12.980;2023-04-09T01:10:09;1.60;99.90
29201;DHT22;16244;51.956;12.980;2023-04-09T01:12:49;1.70;99.90
29201;DHT22;16244;51.956;12.980;2023-04-09T01:15:24;1.60;99.90
29201;DHT22;16244;51.956;12.980;2023-04-09T01:17:58;1.70;99.90
29201;DHT22;16244;51.956;12.980;2023-04-09T01:20:31;1.70;99.90
29201;DHT22;16244;51.956;12.980;2023-04-09T01:23:10;1.80;99.90
29201;DHT22;16244;51.956;12.980;2023-04-09T01:25:50;1.70;99.90
29201;DHT22;16244;51.956;12.980;2023-04-09T01:28:24;1.60;99.90
29201;DHT22;16244;51.956;12.980;2023-04-09T01:30:58;1.60;99.90
29201;DHT22;16244;51.956;12.980;2023-04-09T01:33:28;1.40;99.90
29201;DHT22;16244;51.956;12.980;2023-04-09T01:35:57;1.40;99.90
29201;DHT22;16244;51.956;12.980;2023-04-09T01:38:25;1.40;99.90
29201;DHT22;16244;51.956;12.980;2023-04-09T01:40:54;1.50;99.90
29201;DHT22;16244;51.956;12.980;2023-04-09T01:43:25;1.40;99.90
29201;DHT22;16244;51.956;12.980;2023-04-09T01:45:54;1.40;99.90
29201;DHT22;16244;51.956;12.980;2023-04-09T01:48:22;1.40;99.90
29201;DHT22;16244;51.956;12.980;2023-04-09T01:50:50;1.40;99.90
29201;DHT22;16244;51.956;12.980;2023-04-09T01:53:18;1.40;99.90
29201;DHT22;16244;51.956;12.980;2023-04-09T01:55:46;1.40;99.90
29201;DHT22;16244;51.956;12.980;2023-04-09T01:58:14;1.40;99.90
29201;DHT22;16244;51.956;12.980;2023-04-09T02:00:46;1.30;99.90
29201;DHT22;16244;51.956;12.980;2023-04-09T02:03:17;1.30;99.90
29201;DHT22;16244;51.956;12.980;2023-04-09T02:05:53;1.30;99.90
29201;DHT22;16244;51.956;12.980;2023-04-09T02:08:23;1.30;99.90
29201;DHT22;16244;51.956;12.980;2023-04-09T02:10:57;1.30;99.90
29201;DHT22;16244;51.956;12.980;2023-04-09T02:13:25;1.10;99.90
29201;DHT22;16244;51.956;12.980;2023-04-09T02:15:56;1.00;99.90
29201;DHT22;16244;51.956;12.980;2023-04-09T02:18:25;1.10;99.90
29201;DHT22;16244;51.956;12.980;2023-04-09T02:20:54;1.20;99.90
29201;DHT22;16244;51.956;12.980;2023-04-09T02:23:24;1.20;99.90
29201;DHT22;16244;51.956;12.980;2023-04-09T02:25:52;1.20;99.90
29201;DHT22;16244;51.956;12.980;2023-04-09T02:28:20;1.20;99.90
29201;DHT22;16244;51.956;12.980;2023-04-09T02:30:48;1.30;99.90
29201;DHT22;16244;51.956;12.980;2023-04-09T02:33:17;1.20;99.90
29201;DHT22;16244;51.956;12.980;2023-04-09T02:35:44;1.20;99.90
29201;DHT22;16244;51.956;12.980;2023-04-09T02:38:12;1.10;99.90
29201;DHT22;16244;51.956;12.980;2023-04-09T02:40:41;1.10;99.90
29201;DHT22;16244;51.956;12.980;2023-04-09T02:43:09;0.90;99.90
29201;DHT22;16244;51.956;12.980;2023-04-09T02:45:37;0.90;99.90
29201;DHT22;16244;51.956;12.980;2023-04-09T02:48:04;0.90;99.90
29201;DHT22;16244;51.956;12.980;2023-04-09T02:50:33;0.80;99.90
29201;DHT22;16244;51.956;12.980;2023-04-09T02:53:01;0.90;99.90
29201;DHT22;16244;51.956;12.980;2023-04-09T02:55:29;0.90;99.90
29201;DHT22;16244;51.956;12.980;2023-04-09T02:57:56;0.80;99.90
29201;DHT22;16244;51.956;12.980;2023-04-09T03:00:24;0.80;99.90
29201;DHT22;16244;51.956;12.980;2023-04-09T03:02:52;0.90;99.90
29201;DHT22;16244;51.956;12.980;2023-04-09T03:05:19;0.90;99.90
29201;DHT22;16244;51.956;12.980;2023-04-09T03:07:49;1.00;99.90
29201;DHT22;16244;51.956;12.980;2023-04-09T03:10:17;0.90;99.90
29201;DHT22;16244;51.956;12.980;2023-04-09T03:12:44;0.90;99.90
29201;DHT22;16244;51.956;12.980;2023-04-09T03:15:13;0.90;99.90
29201;DHT22;16244;51.956;12.980;2023-04-09T03:17:41;0.70;99.90
29201;DHT22;16244;51.956;12.980;2023-04-09T03:20:09;0.60;99.90
29201;DHT22;16244;51.956;12.980;2023-04-09T03:22:37;0.60;99.90
29201;DHT22;16244;51.956;12.980;2023-04-09T03:25:07;0.60;99.90
29201;DHT22;16244;51.956;12.980;2023-04-09T03:27:35;0.70;99.90
29201;DHT22;16244;51.956;12.980;2023-04-09T03:30:03;0.70;99.90
29201;DHT22;16244;51.956;12.980;2023-04-09T03:32:30;0.70;99.90
29201;DHT22;16244;51.956;12.980;2023-04-09T03:34:58;0.70;99.90
29201;DHT22;16244;51.956;12.980;2023-04-09T03:37:26;0.80;99.90
29201;DHT22;16244;51.956;12.980;2023-04-09T03:39:53;0.80;99.90
29201;DHT22;16244;51.956;12.980;2023-04-09T03:42:22;0.80;99.90
29201;DHT22;16244;51.956;12.980;2023-04-09T03:44:52;0.80;99.90
29201;DHT22;16244;51.956;12.980;2023-04-09T03:47:20;0.80;99.90
29201;DHT22;16244;51.956;12.980;2023-04-09T03:49:48;0.80;99.90
29201;DHT22;16244;51.956;12.980;2023-04-09T03:52:15;0.80;99.90
29201;DHT22;16244;51.956;12.980;2023-04-09T03:54:43;0.80;99.90
29201;DHT22;16244;51.956;12.980;2023-04-09T03:57:11;0.80;99.90
29201;DHT22;16244;51.956;12.980;2023-04-09T03:59:40;0.90;99.90
29201;DHT22;16244;51.956;12.980;2023-04-09T04:02:07;0.80;99.90
29201;DHT22;16244;51.956;12.980;2023-04-09T04:04:35;0.80;99.90
29201;DHT22;16244;51.956;12.980;2023-04-09T04:07:03;0.70;99.90
29201;DHT22;16244;51.956;12.980;2023-04-09T04:09:30;0.70;99.90
29201;DHT22;16244;51.956;12.980;2023-04-09T04:11:59;0.70;99.90
29201;DHT22;16244;51.956;12.980;2023-04-09T04:14:27;0.70;99.90
29201;DHT22;16244;51.956;12.980;2023-04-09T04:16:57;0.70;99.90
29201;DHT22;16244;51.956;12.980;2023-04-09T04:19:24;0.60;99.90
29201;DHT22;16244;51.956;12.980;2023-04-09T04:21:52;0.60;99.90
29201;DHT22;16244;51.956;12.980;2023-04-09T04:24:20;0.60;99.90
29201;DHT22;16244;51.956;12.980;2023-04-09T04:26:47;0.70;99.90
29201;DHT22;16244;51.956;12.980;2023-04-09T04:29:15;0.70;99.90
29201;DHT22;16244;51.956;12.980;2023-04-09T04:31:42;0.60;99.90
29201;DHT22;16244;51.956;12.980;2023-04-09T04:34:12;0.60;99.90
29201;DHT22;16244;51.956;12.980;2023-04-09T04:36:39;0.50;99.90
29201;DHT22;16244;51.956;12.980;2023-04-09T04:39:07;0.60;99.90
29201;DHT22;16244;51.956;12.980;2023-04-09T04:41:34;0.60;99.90
29201;DHT22;16244;51.956;12.980;2023-04-09T04:44:02;0.60;99.90
29201;DHT22;16244;51.956;12.980;2023-04-09T04:46:30;0.70;99.90
29201;DHT22;16244;51.956;12.980;2023-04-09T04:48:57;0.70;99.90
29201;DHT22;16244;51.956;12.980;2023-04-09T04:51:26;0.70;99.90
29201;DHT22;16244;51.956;12.980;2023-04-09T04:53:56;0.70;99.90
29201;DHT22;16244;51.956;12.980;2023-04-09T04:56:24;0.80;99.90
29201;DHT22;16244;51.956;12.980;2023-04-09T04:58:52;0.80;99.90
29201;DHT22;16244;51.956;12.980;2023-04-09T05:01:19;0.80;99.90
29201;DHT22;16244;51.956;12.980;2023-04-09T05:03:47;0.80;99.90
29201;DHT22;16244;51.956;12.980;2023-04-09T05:06:15;0.90;99.90
29201;DHT22;16244;51.956;12.980;2023-04-09T05:08:44;0.90;99.90
29201;DHT22;16244;51.956;12.980;2023-04-09T05:11:12;0.90;99.90
29201;DHT22;16244;51.956;12.980;2023-04-09T05:13:40;1.00;99.90
29201;DHT22;16244;51.956;12.980;2023-04-09T05:16:15;1.00;99.90
29201;DHT22;16244;51.956;12.980;2023-04-09T05:18:43;1.00;99.90
29201;DHT22;16244;51.956;12.980;2023-04-09T05:21:10;1.00;99.90
29201;DHT22;16244;51.956;12.980;2023-04-09T05:23:38;1.10;99.90
29201;DHT22;16244;51.956;12.980;2023-04-09T05:26:07;0.70;99.90
29201;DHT22;16244;51.956;12.980;2023-04-09T05:28:35;0.90;99.90
29201;DHT22;16244;51.956;12.980;2023-04-09T05:31:03;1.00;99.90
29201;DHT22;16244;51.956;12.980;2023-04-09T05:33:32;0.80;99.90
29201;DHT22;16244;51.956;12.980;2023-04-09T05:36:04;0.80;99.90
29201;DHT22;16244;51.956;12.980;2023-04-09T05:38:31;1.10;99.90
29201;DHT22;16244;51.956;12.980;2023-04-09T05:40:59;1.10;99.90
29201;DHT22;16244;51.956;12.980;2023-04-09T05:43:28;1.30;99.90
29201;DHT22;16244;51.956;12.980;2023-04-09T05:45:56;1.40;99.90
29201;DHT22;16244;51.956;12.980;2023-04-09T05:48:24;1.60;99.90
29201;DHT22;16244;51.956;12.980;2023-04-09T05:50:51;1.60;99.90
29201;DHT22;16244;51.956;12.980;2023-04-09T05:53:20;1.50;99.90
29201;DHT22;16244;51.956;12.980;2023-04-09T05:55:48;1.70;99.90
29201;DHT22;16244;51.956;12.980;2023-04-09T05:58:16;1.60;99.90
29201;DHT22;16244;51.956;12.980;2023-04-09T06:00:45;1.60;99.90
29201;DHT22;16244;51.956;12.980;2023-04-09T06:03:13;1.90;99.90
29201;DHT22;16244;51.956;12.980;2023-04-09T06:05:40;1.60;99.90
29201;DHT22;16244;51.956;12.980;2023-04-09T06:08:08;1.60;99.90
29201;DHT22;16244;51.956;12.980;2023-04-09T06:10:36;1.60;99.90
29201;DHT22;16244;51.956;12.980;2023-04-09T06:13:03;1.90;99.90
29201;DHT22;16244;51.956;12.980;2023-04-09T06:15:31;2.20;99.90
29201;DHT22;16244;51.956;12.980;2023-04-09T06:18:00;2.50;99.90
29201;DHT22;16244;51.956;12.980;2023-04-09T06:20:28;2.70;99.90
29201;DHT22;16244;51.956;12.980;2023-04-09T06:22:56;3.00;99.90
29201;DHT22;16244;51.956;12.980;2023-04-09T06:25:24;3.30;99.90
29201;DHT22;16244;51.956;12.980;2023-04-09T06:27:52;3.50;99.90
29201;DHT22;16244;51.956;12.980;2023-04-09T06:30:19;3.80;99.90
29201;DHT22;16244;51.956;12.980;2023-04-09T06:32:48;4.00;99.90
29201;DHT22;16244;51.956;12.980;2023-04-09T06:35:17;4.10;99.90
29201;DHT22;16244;51.956;12.980;2023-04-09T06:37:45;4.30;99.90
29201;DHT22;16244;51.956;12.980;2023-04-09T06:40:13;4.50;99.90
29201;DHT22;16244;51.956;12.980;2023-04-09T06:42:41;4.80;99.90
29201;DHT22;16244;51.956;12.980;2023-04-09T06:45:09;5.00;99.90
29201;DHT22;16244;51.956;12.980;2023-04-09T06:47:37;5.30;99.90
29201;DHT22;16244;51.956;12.980;2023-04-09T06:50:05;5.40;99.90
29201;DHT22;16244;51.956;12.980;2023-04-09T06:52:34;5.50;99.90
29201;DHT22;16244;51.956;12.980;2023-04-09T06:55:02;5.80;99.90
29201;DHT22;16244;51.956;12.980;2023-04-09T06:57:30;6.10;99.70
29201;DHT22;16244;51.956;12.980;2023-04-09T06:59:58;6.30;98.40
29201;DHT22;16244;51.956;12.980;2023-04-09T07:02:26;6.30;97.80
29201;DHT22;16244;51.956;12.980;2023-04-09T07:04:53;6.60;98.80
29201;DHT22;16244;51.956;12.980;2023-04-09T07:07:21;6.80;97.70
29201;DHT22;16244;51.956;12.980;2023-04-09T07:09:51;7.10;96.10
29201;DHT22;16244;51.956;12.980;2023-04-09T07:12:25;7.20;96.50
29201;DHT22;16244;51.956;12.980;2023-04-09T07:14:56;7.40;96.00
29201;DHT22;16244;51.956;12.980;2023-04-09T07:17:24;7.50;93.10
29201;DHT22;16244;51.956;12.980;2023-04-09T07:19:51;7.60;93.20
29201;DHT22;16244;51.956;12.980;2023-04-09T07:22:20;7.80;93.60
29201;DHT22;16244;51.956;12.980;2023-04-09T07:24:49;8.10;91.80
29201;DHT22;16244;51.956;12.980;2023-04-09T07:27:19;8.30;91.80
29201;DHT22;16244;51.956;12.980;2023-04-09T07:29:47;8.50;90.00
29201;DHT22;16244;51.956;12.980;2023-04-09T07:32:14;8.70;88.70
29201;DHT22;16244;51.956;12.980;2023-04-09T07:34:42;8.90;90.50
29201;DHT22;16244;51.956;12.980;2023-04-09T07:37:10;9.10;89.70
29201;DHT22;16244;51.956;12.980;2023-04-09T07:39:38;9.30;90.50
29201;DHT22;16244;51.956;12.980;2023-04-09T07:42:09;9.40;89.80
29201;DHT22;16244;51.956;12.980;2023-04-09T07:44:37;9.20;90.10
29201;DHT22;16244;51.956;12.980;2023-04-09T07:47:06;9.30;90.00
29201;DHT22;16244;51.956;12.980;2023-04-09T07:49:35;9.30;85.20
29201;DHT22;16244;51.956;12.980;2023-04-09T07:52:04;9.40;84.60
29201;DHT22;16244;51.956;12.980;2023-04-09T07:54:32;9.40;80.60
29201;DHT22;16244;51.956;12.980;2023-04-09T07:57:00;9.50;83.60
29201;DHT22;16244;51.956;12.980;2023-04-09T07:59:29;9.70;82.50
29201;DHT22;16244;51.956;12.980;2023-04-09T08:01:57;9.60;84.20
29201;DHT22;16244;51.956;12.980;2023-04-09T08:04:25;9.60;84.80
29201;DHT22;16244;51.956;12.980;2023-04-09T08:06:53;9.90;84.90
29201;DHT22;16244;51.956;12.980;2023-04-09T08:09:21;10.00;80.40
29201;DHT22;16244;51.956;12.980;2023-04-09T08:11:49;10.00;81.70
29201;DHT22;16244;51.956;12.980;2023-04-09T08:14:17;10.30;80.60
29201;DHT22;16244;51.956;12.980;2023-04-09T08:16:46;10.50;76.80
29201;DHT22;16244;51.956;12.980;2023-04-09T08:19:15;10.40;72.90
29201;DHT22;16244;51.956;12.980;2023-04-09T08:21:44;10.30;72.30
29201;DHT22;16244;51.956;12.980;2023-04-09T08:24:14;10.20;74.80
29201;DHT22;16244;51.956;12.980;2023-04-09T08:26:42;10.20;75.20
29201;DHT22;16244;51.956;12.980;2023-04-09T08:29:11;10.40;78.50
29201;DHT22;16244;51.956;12.980;2023-04-09T08:31:40;10.80;76.10
29201;DHT22;16244;51.956;12.980;2023-04-09T08:34:09;11.00;74.70
29201;DHT22;16244;51.956;12.980;2023-04-09T08:36:38;10.70;72.40
29201;DHT22;16244;51.956;12.980;2023-04-09T08:39:06;10.80;72.10
29201;DHT22;16244;51.956;12.980;2023-04-09T08:41:37;11.10;73.30
29201;DHT22;16244;51.956;12.980;2023-04-09T08:44:08;11.60;74.40
29201;DHT22;16244;51.956;12.980;2023-04-09T08:46:37;12.10;73.70
29201;DHT22;16244;51.956;12.980;2023-04-09T08:49:08;12.40;67.90
29201;DHT22;16244;51.956;12.980;2023-04-09T08:51:37;12.20;65.90
29201;DHT22;16244;51.956;12.980;2023-04-09T08:54:06;12.40;65.70
29201;DHT22;16244;51.956;12.980;2023-04-09T08:56:34;12.30;64.40
29201;DHT22;16244;51.956;12.980;2023-04-09T08:59:02;12.40;68.90
29201;DHT22;16244;51.956;12.980;2023-04-09T09:01:31;12.70;65.30
29201;DHT22;16244;51.956;12.980;2023-04-09T09:04:00;12.50;66.20
29201;DHT22;16244;51.956;12.980;2023-04-09T09:06:32;12.40;65.80
29201;DHT22;16244;51.956;12.980;2023-04-09T09:09:04;12.90;67.60
29201;DHT22;16244;51.956;12.980;2023-04-09T09:11:32;13.30;64.50
29201;DHT22;16244;51.956;12.980;2023-04-09T09:14:02;13.70;62.30
29201;DHT22;16244;51.956;12.980;2023-04-09T09:16:30;14.10;61.60
29201;DHT22;16244;51.956;12.980;2023-04-09T09:19:01;14.30;58.80
29201;DHT22;16244;51.956;12.980;2023-04-09T09:21:30;14.30;56.20
29201;DHT22;16244;51.956;12.980;2023-04-09T09:23:58;14.00;57.60
29201;DHT22;16244;51.956;12.980;2023-04-09T09:26:28;13.70;57.70
29201;DHT22;16244;51.956;12.980;2023-04-09T09:28:56;13.30;60.20
29201;DHT22;16244;51.956;12.980;2023-04-09T09:31:25;13.60;61.80
29201;DHT22;16244;51.956;12.980;2023-04-09T09:33:53;14.20;65.00
29201;DHT22;16244;51.956;12.980;2023-04-09T09:36:33;14.70;57.40
29201;DHT22;16244;51.956;12.980;2023-04-09T09:39:02;14.40;58.00
29201;DHT22;16244;51.956;12.980;2023-04-09T09:41:35;14.80;58.70
29201;DHT22;16244;51.956;12.980;2023-04-09T09:44:03;15.80;56.80
29201;DHT22;16244;51.956;12.980;2023-04-09T09:46:34;16.40;53.40
29201;DHT22;16244;51.956;12.980;2023-04-09T09:49:02;16.70;51.20
29201;DHT22;16244;51.956;12.980;2023-04-09T09:51:34;16.90;52.20
29201;DHT22;16244;51.956;12.980;2023-04-09T09:54:02;17.20;52.70
29201;DHT22;16244;51.956;12.980;2023-04-09T09:56:33;17.10;50.20
29201;DHT22;16244;51.956;12.980;2023-04-09T09:59:06;17.00;48.40
29201;DHT22;16244;51.956;12.980;2023-04-09T10:01:35;16.70;49.30
29201;DHT22;16244;51.956;12.980;2023-04-09T10:04:05;16.30;53.00
29201;DHT22;16244;51.956;12.980;2023-04-09T10:06:35;16.00;50.70
29201;DHT22;16244;51.956;12.980;2023-04-09T10:09:04;16.10;51.10
29201;DHT22;16244;51.956;12.980;2023-04-09T10:11:35;16.50;53.50
29201;DHT22;16244;51.956;12.980;2023-04-09T10:14:03;17.10;50.90
29201;DHT22;16244;51.956;12.980;2023-04-09T10:16:32;17.60;51.90
29201;DHT22;16244;51.956;12.980;2023-04-09T10:19:01;17.70;49.00
29201;DHT22;16244;51.956;12.980;2023-04-09T10:21:37;18.10;46.20
29201;DHT22;16244;51.956;12.980;2023-04-09T10:24:07;17.40;48.80
29201;DHT22;16244;51.956;12.980;2023-04-09T10:26:39;17.10;47.80
29201;DHT22;16244;51.956;12.980;2023-04-09T10:29:08;17.20;49.60
29201;DHT22;16244;51.956;12.980;2023-04-09T10:31:51;17.70;48.40
29201;DHT22;16244;51.956;12.980;2023-04-09T10:34:21;17.80;48.40
29201;DHT22;16244;51.956;12.980;2023-04-09T10:36:51;18.00;51.10
29201;DHT22;16244;51.956;12.980;2023-04-09T10:39:20;17.90;47.80
29201;DHT22;16244;51.956;12.980;2023-04-09T10:41:48;17.50;49.70
29201;DHT22;16244;51.956;12.980;2023-04-09T10:44:20;17.90;49.30
29201;DHT22;16244;51.956;12.980;2023-04-09T10:46:48;18.30;46.90
29201;DHT22;16244;51.956;12.980;2023-04-09T10:49:17;18.00;47.30
29201;DHT22;16244;51.956;12.980;2023-04-09T10:52:00;17.60;51.20
29201;DHT22;16244;51.956;12.980;2023-04-09T10:54:39;17.70;47.80
29201;DHT22;16244;51.956;12.980;2023-04-09T10:57:10;17.70;49.10
29201;DHT22;16244;51.956;12.980;2023-04-09T10:59:41;17.40;47.20
29201;DHT22;16244;51.956;12.980;2023-04-09T11:05:00;17.30;48.70
29201;DHT22;16244;51.956;12.980;2023-04-09T11:07:38;17.80;49.90
29201;DHT22;16244;51.956;12.980;2023-04-09T11:10:08;17.80;48.30
29201;DHT22;16244;51.956;12.980;2023-04-09T11:12:35;18.30;47.70
29201;DHT22;16244;51.956;12.980;2023-04-09T11:15:04;18.50;48.00
29201;DHT22;16244;51.956;12.980;2023-04-09T11:17:35;18.20;49.60
29201;DHT22;16244;51.956;12.980;2023-04-09T11:20:03;18.40;48.50
29201;DHT22;16244;51.956;12.980;2023-04-09T11:22:32;18.10;49.60
29201;DHT22;16244;51.956;12.980;2023-04-09T11:25:00;18.50;45.50
29201;DHT22;16244;51.956;12.980;2023-04-09T11:27:28;18.90;43.30
29201;DHT22;16244;51.956;12.980;2023-04-09T11:29:56;18.60;43.50
29201;DHT22;16244;51.956;12.980;2023-04-09T11:32:30;17.80;44.60
29201;DHT22;16244;51.956;12.980;2023-04-09T11:34:58;17.30;46.80
29201;DHT22;16244;51.956;12.980;2023-04-09T11:37:25;17.20;48.80
29201;DHT22;16244;51.956;12.980;2023-04-09T11:39:55;17.70;49.00
29201;DHT22;16244;51.956;12.980;2023-04-09T11:42:23;17.50;47.90
29201;DHT22;16244;51.956;12.980;2023-04-09T11:44:52;16.70;52.50
29201;DHT22;16244;51.956;12.980;2023-04-09T11:47:20;16.10;52.90
29201;DHT22;16244;51.956;12.980;2023-04-09T11:49:48;15.80;59.80
29201;DHT22;16244;51.956;12.980;2023-04-09T11:52:17;15.10;58.10
29201;DHT22;16244;51.956;12.980;2023-04-09T11:54:47;15.10;59.10
29201;DHT22;16244;51.956;12.980;2023-04-09T11:57:17;14.80;59.50
29201;DHT22;16244;51.956;12.980;2023-04-09T11:59:45;14.70;62.90
29201;DHT22;16244;51.956;12.980;2023-04-09T12:02:16;14.40;60.40
29201;DHT22;16244;51.956;12.980;2023-04-09T12:04:48;14.30;60.20
29201;DHT22;16244;51.956;12.980;2023-04-09T12:07:16;14.30;63.00
29201;DHT22;16244;51.956;12.980;2023-04-09T12:09:47;14.30;64.10
29201;DHT22;16244;51.956;12.980;2023-04-09T12:12:23;14.20;62.70
29201;DHT22;16244;51.956;12.980;2023-04-09T12:14:51;14.10;63.20
29201;DHT22;16244;51.956;12.980;2023-04-09T12:17:21;14.00;63.30
29201;DHT22;16244;51.956;12.980;2023-04-09T12:19:49;14.10;66.80
29201;DHT22;16244;51.956;12.980;2023-04-09T12:22:16;14.10;67.60
29201;DHT22;16244;51.956;12.980;2023-04-09T12:24:44;14.00;63.80
29201;DHT22;16244;51.956;12.980;2023-04-09T12:27:12;14.10;67.40
29201;DHT22;16244;51.956;12.980;2023-04-09T12:29:41;14.10;61.70
29201;DHT22;16244;51.956;12.980;2023-04-09T12:32:09;13.90;63.70
29201;DHT22;16244;51.956;12.980;2023-04-09T12:34:37;14.00;68.90
29201;DHT22;16244;51.956;12.980;2023-04-09T12:37:04;13.90;62.80
29201;DHT22;16244;51.956;12.980;2023-04-09T12:39:32;13.80;65.20
29201;DHT22;16244;51.956;12.980;2023-04-09T12:42:00;13.90;68.30
29201;DHT22;16244;51.956;12.980;2023-04-09T12:44:28;14.10;70.10
29201;DHT22;16244;51.956;12.980;2023-04-09T12:46:57;14.20;65.70
29201;DHT22;16244;51.956;12.980;2023-04-09T12:49:25;14.10;64.00
29201;DHT22;16244;51.956;12.980;2023-04-09T12:51:52;14.20;65.10
29201;DHT22;16244;51.956;12.980;2023-04-09T12:54:20;14.30;65.60
29201;DHT22;16244;51.956;12.980;2023-04-09T12:56:48;14.20;60.60
29201;DHT22;16244;51.956;12.980;2023-04-09T12:59:16;14.10;58.80
29201;DHT22;16244;51.956;12.980;2023-04-09T13:01:44;14.00;60.90
29201;DHT22;16244;51.956;12.980;2023-04-09T13:04:13;14.00;60.60
29201;DHT22;16244;51.956;12.980;2023-04-09T13:06:41;14.10;62.30
29201;DHT22;16244;51.956;12.980;2023-04-09T13:09:09;14.10;60.70
29201;DHT22;16244;51.956;12.980;2023-04-09T13:11:37;14.10;58.50
29201;DHT22;16244;51.956;12.980;2023-04-09T13:14:05;14.10;58.90
29201;DHT22;16244;51.956;12.980;2023-04-09T13:16:33;14.00;59.30
29201;DHT22;16244;51.956;12.980;2023-04-09T13:19:00;13.90;58.20
29201;DHT22;16244;51.956;12.980;2023-04-09T13:21:30;13.80;60.60
29201;DHT22;16244;51.956;12.980;2023-04-09T13:23:58;13.80;60.90
29201;DHT22;16244;51.956;12.980;2023-04-09T13:26:26;13.90;58.00
29201;DHT22;16244;51.956;12.980;2023-04-09T13:28:53;13.90;61.50
29201;DHT22;16244;51.956;12.980;2023-04-09T13:31:21;13.90;57.30
29201;DHT22;16244;51.956;12.980;2023-04-09T13:33:49;13.90;57.60
29201;DHT22;16244;51.956;12.980;2023-04-09T13:36:17;13.80;59.40
29201;DHT22;16244;51.956;12.980;2023-04-09T13:38:47;13.80;62.70
29201;DHT22;16244;51.956;12.980;2023-04-09T13:41:15;14.00;64.20
29201;DHT22;16244;51.956;12.980;2023-04-09T13:43:43;14.10;60.60
29201;DHT22;16244;51.956;12.980;2023-04-09T13:46:11;14.20;61.40
29201;DHT22;16244;51.956;12.980;2023-04-09T13:48:39;14.30;63.80
29201;DHT22;16244;51.956;12.980;2023-04-09T13:51:07;14.30;58.20
29201;DHT22;16244;51.956;12.980;2023-04-09T13:53:35;14.20;56.90
29201;DHT22;16244;51.956;12.980;2023-04-09T13:56:05;14.20;55.80
29201;DHT22;16244;51.956;12.980;2023-04-09T13:58:33;14.20;56.20
29201;DHT22;16244;51.956;12.980;2023-04-09T14:01:01;14.10;53.90
29201;DHT22;16244;51.956;12.980;2023-04-09T14:03:29;14.10;54.20
29201;DHT22;16244;51.956;12.980;2023-04-09T14:05:57;14.10;55.30
29201;DHT22;16244;51.956;12.980;2023-04-09T14:08:25;14.20;55.40
29201;DHT22;16244;51.956;12.980;2023-04-09T14:10:52;14.30;58.90
29201;DHT22;16244;51.956;12.980;2023-04-09T14:13:23;14.30;53.30
29201;DHT22;16244;51.956;12.980;2023-04-09T14:15:51;14.30;54.20
29201;DHT22;16244;51.956;12.980;2023-04-09T14:18:19;14.30;52.00
29201;DHT22;16244;51.956;12.980;2023-04-09T14:20:48;14.20;54.20
29201;DHT22;16244;51.956;12.980;2023-04-09T14:23:16;14.30;56.60
29201;DHT22;16244;51.956;12.980;2023-04-09T14:25:43;14.30;54.30
29201;DHT22;16244;51.956;12.980;2023-04-09T14:28:11;14.20;54.80
29201;DHT22;16244;51.956;12.980;2023-04-09T14:30:41;14.20;53.40
29201;DHT22;16244;51.956;12.980;2023-04-09T14:33:08;14.20;55.60
29201;DHT22;16244;51.956;12.980;2023-04-09T14:35:36;14.30;54.00
29201;DHT22;16244;51.956;12.980;2023-04-09T14:38:04;14.30;53.40
29201;DHT22;16244;51.956;12.980;2023-04-09T14:40:33;14.40;53.90
29201;DHT22;16244;51.956;12.980;2023-04-09T14:43:01;14.60;53.50
29201;DHT22;16244;51.956;12.980;2023-04-09T14:45:28;15.10;53.90
29201;DHT22;16244;51.956;12.980;2023-04-09T14:47:58;15.40;49.80
29201;DHT22;16244;51.956;12.980;2023-04-09T14:50:28;15.70;50.10
29201;DHT22;16244;51.956;12.980;2023-04-09T14:52:56;15.90;48.90
29201;DHT22;16244;51.956;12.980;2023-04-09T14:55:24;16.50;51.70
29201;DHT22;16244;51.956;12.980;2023-04-09T14:57:52;16.90;47.90
29201;DHT22;16244;51.956;12.980;2023-04-09T15:00:20;17.20;48.10
29201;DHT22;16244;51.956;12.980;2023-04-09T15:02:51;17.30;47.00
29201;DHT22;16244;51.956;12.980;2023-04-09T15:05:20;17.20;46.80
29201;DHT22;16244;51.956;12.980;2023-04-09T15:07:48;16.90;45.60
29201;DHT22;16244;51.956;12.980;2023-04-09T15:10:18;16.80;46.70
29201;DHT22;16244;51.956;12.980;2023-04-09T15:12:46;17.20;46.10
29201;DHT22;16244;51.956;12.980;2023-04-09T15:15:14;17.50;45.10
29201;DHT22;16244;51.956;12.980;2023-04-09T15:17:42;17.40;44.60
29201;DHT22;16244;51.956;12.980;2023-04-09T15:20:10;17.60;45.90
29201;DHT22;16244;51.956;12.980;2023-04-09T15:22:40;17.90;45.30
29201;DHT22;16244;51.956;12.980;2023-04-09T15:25:09;17.40;44.00
29201;DHT22;16244;51.956;12.980;2023-04-09T15:27:38;17.30;44.60
29201;DHT22;16244;51.956;12.980;2023-04-09T15:30:11;17.00;45.70
29201;DHT22;16244;51.956;12.980;2023-04-09T15:32:46;16.40;47.90
29201;DHT22;16244;51.956;12.980;2023-04-09T15:35:17;16.20;47.40